Everglades, Florida
Current Conditions -  °F | °C
As of 11:15 AM on Thursday 29 Jan 2015 (Local Time) from KMKY Reporting Station
Clear Clear  
Wind Chill: 68°   Ceiling: Unl
Heat Index: 68°   Visibility: 10mi
Dew Point: 48°   Wind: 12mph
Humidity: 49%   Direction: 70°ENE
Pressure: 30.28"   Gusts: NA
Location:  25.8583°N, 81.3702°W
Report Text: KMKY 291615Z AUTO 07010KT 10SM CLR 20/09 A3028 RMK AO1
Loading
Personal Weather Stations






























Interactive Weather Map New forecast layout! Learn more

10-Day Weather Forecast

Advertisements
Track Severe Weather on mobile